sensor_id;sensor_type;location;lat;lon;timestamp;P1;durP1;ratioP1;P2;durP2;ratioP2
23175;SDS011;19910;42.652;23.332;2023-05-29T00:00:00;9.60;;;4.18;;
23175;SDS011;19910;42.652;23.332;2023-05-29T00:02:30;4.22;;;3.55;;
23175;SDS011;19910;42.652;23.332;2023-05-29T00:04:57;6.13;;;4.00;;
23175;SDS011;19910;42.652;23.332;2023-05-29T00:07:25;5.38;;;3.40;;
23175;SDS011;19910;42.652;23.332;2023-05-29T00:09:52;4.68;;;3.42;;
23175;SDS011;19910;42.652;23.332;2023-05-29T00:12:19;8.02;;;3.60;;
23175;SDS011;19910;42.652;23.332;2023-05-29T00:14:47;6.28;;;3.60;;
23175;SDS011;19910;42.652;23.332;2023-05-29T00:17:14;6.13;;;3.80;;
23175;SDS011;19910;42.652;23.332;2023-05-29T00:19:42;6.97;;;3.72;;
23175;SDS011;19910;42.652;23.332;2023-05-29T00:22:09;4.75;;;3.53;;
23175;SDS011;19910;42.652;23.332;2023-05-29T00:24:37;7.80;;;3.90;;
23175;SDS011;19910;42.652;23.332;2023-05-29T00:27:04;8.02;;;3.90;;
23175;SDS011;19910;42.652;23.332;2023-05-29T00:29:30;9.13;;;4.13;;
23175;SDS011;19910;42.652;23.332;2023-05-29T00:31:57;7.03;;;4.05;;
23175;SDS011;19910;42.652;23.332;2023-05-29T00:34:24;7.72;;;3.50;;
23175;SDS011;19910;42.652;23.332;2023-05-29T00:36:51;7.65;;;4.18;;
23175;SDS011;19910;42.652;23.332;2023-05-29T00:39:19;5.45;;;3.50;;
23175;SDS011;19910;42.652;23.332;2023-05-29T00:41:48;5.82;;;3.47;;
23175;SDS011;19910;42.652;23.332;2023-05-29T00:44:16;6.72;;;3.53;;
23175;SDS011;19910;42.652;23.332;2023-05-29T00:46:43;4.97;;;3.60;;
23175;SDS011;19910;42.652;23.332;2023-05-29T00:49:10;6.45;;;3.70;;
23175;SDS011;19910;42.652;23.332;2023-05-29T00:51:37;8.32;;;4.15;;
23175;SDS011;19910;42.652;23.332;2023-05-29T00:54:05;6.15;;;4.20;;
23175;SDS011;19910;42.652;23.332;2023-05-29T00:56:34;5.53;;;3.70;;
23175;SDS011;19910;42.652;23.332;2023-05-29T00:59:02;7.13;;;4.00;;
23175;SDS011;19910;42.652;23.332;2023-05-29T01:01:31;7.07;;;3.45;;
23175;SDS011;19910;42.652;23.332;2023-05-29T01:03:58;4.82;;;3.42;;
23175;SDS011;19910;42.652;23.332;2023-05-29T01:06:27;7.00;;;4.10;;
23175;SDS011;19910;42.652;23.332;2023-05-29T01:08:53;6.03;;;3.72;;
23175;SDS011;19910;42.652;23.332;2023-05-29T01:11:22;8.48;;;3.78;;
23175;SDS011;19910;42.652;23.332;2023-05-29T01:13:57;6.63;;;4.20;;
23175;SDS011;19910;42.652;23.332;2023-05-29T01:16:33;21.85;;;11.27;;
23175;SDS011;19910;42.652;23.332;2023-05-29T01:19:08;7.15;;;4.28;;
23175;SDS011;19910;42.652;23.332;2023-05-29T01:21:43;7.72;;;5.07;;
23175;SDS011;19910;42.652;23.332;2023-05-29T01:24:24;15.55;;;9.10;;
23175;SDS011;19910;42.652;23.332;2023-05-29T01:29:30;15.82;;;9.73;;
23175;SDS011;19910;42.652;23.332;2023-05-29T01:32:00;12.32;;;6.28;;
23175;SDS011;19910;42.652;23.332;2023-05-29T01:34:28;6.78;;;4.35;;
23175;SDS011;19910;42.652;23.332;2023-05-29T01:36:55;7.22;;;4.90;;
23175;SDS011;19910;42.652;23.332;2023-05-29T01:39:21;9.27;;;4.43;;
23175;SDS011;19910;42.652;23.332;2023-05-29T01:41:49;12.52;;;4.50;;
23175;SDS011;19910;42.652;23.332;2023-05-29T01:44:18;9.90;;;3.90;;
23175;SDS011;19910;42.652;23.332;2023-05-29T01:46:47;8.27;;;4.18;;
23175;SDS011;19910;42.652;23.332;2023-05-29T01:49:15;10.88;;;4.38;;
23175;SDS011;19910;42.652;23.332;2023-05-29T01:51:44;6.93;;;3.85;;
23175;SDS011;19910;42.652;23.332;2023-05-29T01:54:10;6.85;;;4.30;;
23175;SDS011;19910;42.652;23.332;2023-05-29T01:56:38;7.55;;;4.15;;
23175;SDS011;19910;42.652;23.332;2023-05-29T01:59:05;6.40;;;4.78;;
23175;SDS011;19910;42.652;23.332;2023-05-29T02:01:33;8.23;;;4.18;;
23175;SDS011;19910;42.652;23.332;2023-05-29T02:04:00;7.95;;;4.50;;
23175;SDS011;19910;42.652;23.332;2023-05-29T02:06:27;4.57;;;3.63;;
23175;SDS011;19910;42.652;23.332;2023-05-29T02:08:54;9.95;;;4.68;;
23175;SDS011;19910;42.652;23.332;2023-05-29T02:11:20;9.95;;;4.60;;
23175;SDS011;19910;42.652;23.332;2023-05-29T02:13:47;7.45;;;4.47;;
23175;SDS011;19910;42.652;23.332;2023-05-29T02:16:14;8.57;;;4.45;;
23175;SDS011;19910;42.652;23.332;2023-05-29T02:18:43;9.98;;;4.63;;
23175;SDS011;19910;42.652;23.332;2023-05-29T02:21:10;7.38;;;4.40;;
23175;SDS011;19910;42.652;23.332;2023-05-29T02:23:37;6.93;;;4.57;;
23175;SDS011;19910;42.652;23.332;2023-05-29T02:26:04;9.38;;;4.78;;
23175;SDS011;19910;42.652;23.332;2023-05-29T02:28:31;7.40;;;5.00;;
23175;SDS011;19910;42.652;23.332;2023-05-29T02:30:58;9.13;;;4.45;;
23175;SDS011;19910;42.652;23.332;2023-05-29T02:33:24;6.82;;;4.53;;
23175;SDS011;19910;42.652;23.332;2023-05-29T02:35:53;8.27;;;4.57;;
23175;SDS011;19910;42.652;23.332;2023-05-29T02:38:19;9.10;;;4.80;;
23175;SDS011;19910;42.652;23.332;2023-05-29T02:40:46;7.63;;;4.28;;
23175;SDS011;19910;42.652;23.332;2023-05-29T02:43:13;7.20;;;4.70;;
23175;SDS011;19910;42.652;23.332;2023-05-29T02:45:40;8.32;;;4.88;;
23175;SDS011;19910;42.652;23.332;2023-05-29T02:48:07;6.57;;;4.25;;
23175;SDS011;19910;42.652;23.332;2023-05-29T02:50:34;8.48;;;4.70;;
23175;SDS011;19910;42.652;23.332;2023-05-29T02:53:02;8.95;;;5.15;;
23175;SDS011;19910;42.652;23.332;2023-05-29T02:55:29;7.57;;;5.30;;
23175;SDS011;19910;42.652;23.332;2023-05-29T02:57:57;6.85;;;5.15;;
23175;SDS011;19910;42.652;23.332;2023-05-29T03:00:25;7.38;;;5.53;;
23175;SDS011;19910;42.652;23.332;2023-05-29T03:02:53;11.10;;;4.90;;
23175;SDS011;19910;42.652;23.332;2023-05-29T03:05:20;11.65;;;5.38;;
23175;SDS011;19910;42.652;23.332;2023-05-29T03:07:47;7.68;;;4.57;;
23175;SDS011;19910;42.652;23.332;2023-05-29T03:10:15;9.77;;;5.10;;
23175;SDS011;19910;42.652;23.332;2023-05-29T03:12:43;9.52;;;5.38;;
23175;SDS011;19910;42.652;23.332;2023-05-29T03:15:10;7.10;;;4.75;;
23175;SDS011;19910;42.652;23.332;2023-05-29T03:17:37;7.75;;;4.40;;
23175;SDS011;19910;42.652;23.332;2023-05-29T03:20:04;6.05;;;4.35;;
23175;SDS011;19910;42.652;23.332;2023-05-29T03:22:33;9.77;;;5.00;;
23175;SDS011;19910;42.652;23.332;2023-05-29T03:25:00;13.13;;;5.43;;
23175;SDS011;19910;42.652;23.332;2023-05-29T03:27:29;7.13;;;4.70;;
23175;SDS011;19910;42.652;23.332;2023-05-29T03:29:56;11.65;;;5.80;;
23175;SDS011;19910;42.652;23.332;2023-05-29T03:32:24;9.52;;;5.65;;
23175;SDS011;19910;42.652;23.332;2023-05-29T03:34:50;11.13;;;6.07;;
23175;SDS011;19910;42.652;23.332;2023-05-29T03:37:17;10.57;;;5.80;;
23175;SDS011;19910;42.652;23.332;2023-05-29T03:39:44;12.38;;;5.50;;
23175;SDS011;19910;42.652;23.332;2023-05-29T03:42:11;14.35;;;5.28;;
23175;SDS011;19910;42.652;23.332;2023-05-29T03:44:40;8.38;;;5.28;;
23175;SDS011;19910;42.652;23.332;2023-05-29T03:47:07;10.70;;;5.25;;
23175;SDS011;19910;42.652;23.332;2023-05-29T03:49:34;9.68;;;5.53;;
23175;SDS011;19910;42.652;23.332;2023-05-29T03:52:01;8.10;;;5.20;;
23175;SDS011;19910;42.652;23.332;2023-05-29T03:54:28;7.78;;;4.88;;
23175;SDS011;19910;42.652;23.332;2023-05-29T03:56:54;8.57;;;4.97;;
23175;SDS011;19910;42.652;23.332;2023-05-29T03:59:21;9.70;;;4.95;;
23175;SDS011;19910;42.652;23.332;2023-05-29T04:01:49;8.48;;;4.95;;
23175;SDS011;19910;42.652;23.332;2023-05-29T04:04:16;10.35;;;5.80;;
23175;SDS011;19910;42.652;23.332;2023-05-29T04:06:43;10.05;;;5.75;;
23175;SDS011;19910;42.652;23.332;2023-05-29T04:09:10;7.78;;;4.85;;
23175;SDS011;19910;42.652;23.332;2023-05-29T04:11:36;8.52;;;5.30;;
23175;SDS011;19910;42.652;23.332;2023-05-29T04:14:03;6.05;;;4.57;;
23175;SDS011;19910;42.652;23.332;2023-05-29T04:16:30;9.52;;;4.80;;
23175;SDS011;19910;42.652;23.332;2023-05-29T04:18:58;9.43;;;4.63;;
23175;SDS011;19910;42.652;23.332;2023-05-29T04:21:25;7.85;;;4.50;;
23175;SDS011;19910;42.652;23.332;2023-05-29T04:23:52;7.90;;;4.07;;
23175;SDS011;19910;42.652;23.332;2023-05-29T04:26:19;6.72;;;4.18;;
23175;SDS011;19910;42.652;23.332;2023-05-29T04:28:50;9.68;;;4.70;;
23175;SDS011;19910;42.652;23.332;2023-05-29T04:31:17;10.18;;;4.68;;
23175;SDS011;19910;42.652;23.332;2023-05-29T04:33:47;9.88;;;5.15;;
23175;SDS011;19910;42.652;23.332;2023-05-29T04:36:16;6.82;;;4.80;;
23175;SDS011;19910;42.652;23.332;2023-05-29T04:38:42;11.35;;;6.30;;
23175;SDS011;19910;42.652;23.332;2023-05-29T04:41:10;14.43;;;5.22;;
23175;SDS011;19910;42.652;23.332;2023-05-29T04:43:37;12.38;;;5.53;;
23175;SDS011;19910;42.652;23.332;2023-05-29T04:46:05;13.35;;;7.28;;
23175;SDS011;19910;42.652;23.332;2023-05-29T04:48:32;15.45;;;6.78;;
23175;SDS011;19910;42.652;23.332;2023-05-29T04:50:59;11.68;;;5.63;;
23175;SDS011;19910;42.652;23.332;2023-05-29T04:53:27;12.88;;;5.45;;
23175;SDS011;19910;42.652;23.332;2023-05-29T04:55:55;12.57;;;5.00;;
23175;SDS011;19910;42.652;23.332;2023-05-29T04:58:21;12.73;;;5.55;;
23175;SDS011;19910;42.652;23.332;2023-05-29T05:00:50;12.13;;;5.50;;
23175;SDS011;19910;42.652;23.332;2023-05-29T05:03:17;13.20;;;5.88;;
23175;SDS011;19910;42.652;23.332;2023-05-29T05:05:44;14.02;;;7.07;;
23175;SDS011;19910;42.652;23.332;2023-05-29T05:08:11;11.30;;;5.85;;
23175;SDS011;19910;42.652;23.332;2023-05-29T05:10:39;11.70;;;5.80;;
23175;SDS011;19910;42.652;23.332;2023-05-29T05:13:06;16.17;;;6.30;;
23175;SDS011;19910;42.652;23.332;2023-05-29T05:15:33;12.60;;;5.90;;
23175;SDS011;19910;42.652;23.332;2023-05-29T05:18:00;7.43;;;5.40;;
23175;SDS011;19910;42.652;23.332;2023-05-29T05:20:26;7.28;;;5.03;;
23175;SDS011;19910;42.652;23.332;2023-05-29T05:22:53;10.32;;;5.78;;
23175;SDS011;19910;42.652;23.332;2023-05-29T05:25:21;9.23;;;5.63;;
23175;SDS011;19910;42.652;23.332;2023-05-29T05:27:49;10.43;;;5.65;;
23175;SDS011;19910;42.652;23.332;2023-05-29T05:30:16;10.73;;;5.57;;
23175;SDS011;19910;42.652;23.332;2023-05-29T05:32:42;11.30;;;5.40;;
23175;SDS011;19910;42.652;23.332;2023-05-29T05:35:09;9.45;;;5.25;;
23175;SDS011;19910;42.652;23.332;2023-05-29T05:37:36;6.47;;;4.97;;
23175;SDS011;19910;42.652;23.332;2023-05-29T05:40:03;5.18;;;4.05;;
23175;SDS011;19910;42.652;23.332;2023-05-29T05:42:32;6.90;;;4.10;;
23175;SDS011;19910;42.652;23.332;2023-05-29T05:45:00;4.82;;;4.00;;
23175;SDS011;19910;42.652;23.332;2023-05-29T05:47:28;8.40;;;3.90;;
23175;SDS011;19910;42.652;23.332;2023-05-29T05:49:55;4.07;;;3.60;;
23175;SDS011;19910;42.652;23.332;2023-05-29T05:52:21;6.45;;;3.70;;
23175;SDS011;19910;42.652;23.332;2023-05-29T05:54:48;5.60;;;3.30;;
23175;SDS011;19910;42.652;23.332;2023-05-29T05:57:15;5.22;;;3.35;;
23175;SDS011;19910;42.652;23.332;2023-05-29T05:59:42;6.90;;;3.53;;
23175;SDS011;19910;42.652;23.332;2023-05-29T06:02:10;5.88;;;3.65;;
23175;SDS011;19910;42.652;23.332;2023-05-29T06:04:37;9.68;;;3.80;;
23175;SDS011;19910;42.652;23.332;2023-05-29T06:07:04;5.68;;;3.17;;
23175;SDS011;19910;42.652;23.332;2023-05-29T06:09:31;8.70;;;3.88;;
23175;SDS011;19910;42.652;23.332;2023-05-29T06:11:58;8.98;;;3.60;;
23175;SDS011;19910;42.652;23.332;2023-05-29T06:14:25;4.68;;;3.08;;
23175;SDS011;19910;42.652;23.332;2023-05-29T06:16:52;6.38;;;3.45;;
23175;SDS011;19910;42.652;23.332;2023-05-29T06:19:21;6.80;;;3.50;;
23175;SDS011;19910;42.652;23.332;2023-05-29T06:21:48;8.63;;;3.78;;
23175;SDS011;19910;42.652;23.332;2023-05-29T06:24:14;8.27;;;4.13;;
23175;SDS011;19910;42.652;23.332;2023-05-29T06:26:41;6.65;;;3.00;;
23175;SDS011;19910;42.652;23.332;2023-05-29T06:29:08;5.18;;;3.80;;
23175;SDS011;19910;42.652;23.332;2023-05-29T06:31:35;6.22;;;3.97;;
23175;SDS011;19910;42.652;23.332;2023-05-29T06:34:01;6.28;;;3.20;;
23175;SDS011;19910;42.652;23.332;2023-05-29T06:36:30;4.07;;;2.70;;
23175;SDS011;19910;42.652;23.332;2023-05-29T06:38:57;4.82;;;2.85;;
23175;SDS011;19910;42.652;23.332;2023-05-29T06:41:24;3.65;;;2.58;;
23175;SDS011;19910;42.652;23.332;2023-05-29T06:43:51;6.63;;;2.90;;
23175;SDS011;19910;42.652;23.332;2023-05-29T06:46:18;4.18;;;2.70;;
23175;SDS011;19910;42.652;23.332;2023-05-29T06:48:45;4.55;;;2.08;;
23175;SDS011;19910;42.652;23.332;2023-05-29T06:51:11;4.03;;;2.55;;
23175;SDS011;19910;42.652;23.332;2023-05-29T06:53:40;4.65;;;2.08;;
23175;SDS011;19910;42.652;23.332;2023-05-29T06:56:07;2.10;;;1.80;;
23175;SDS011;19910;42.652;23.332;2023-05-29T06:58:34;2.15;;;1.80;;
23175;SDS011;19910;42.652;23.332;2023-05-29T07:01:00;4.18;;;1.70;;
23175;SDS011;19910;42.652;23.332;2023-05-29T07:03:27;2.35;;;1.40;;
23175;SDS011;19910;42.652;23.332;2023-05-29T07:05:55;1.98;;;1.50;;
23175;SDS011;19910;42.652;23.332;2023-05-29T07:08:22;2.22;;;1.27;;
23175;SDS011;19910;42.652;23.332;2023-05-29T07:10:51;3.92;;;1.52;;
23175;SDS011;19910;42.652;23.332;2023-05-29T07:13:17;2.38;;;1.80;;
23175;SDS011;19910;42.652;23.332;2023-05-29T07:15:44;3.13;;;2.13;;
23175;SDS011;19910;42.652;23.332;2023-05-29T07:18:11;3.33;;;2.60;;
23175;SDS011;19910;42.652;23.332;2023-05-29T07:20:38;5.10;;;2.63;;
23175;SDS011;19910;42.652;23.332;2023-05-29T07:23:05;3.22;;;2.22;;
23175;SDS011;19910;42.652;23.332;2023-05-29T07:25:31;5.88;;;2.50;;
23175;SDS011;19910;42.652;23.332;2023-05-29T07:28:00;4.50;;;2.00;;
23175;SDS011;19910;42.652;23.332;2023-05-29T07:30:26;4.05;;;2.40;;
23175;SDS011;19910;42.652;23.332;2023-05-29T07:32:53;3.88;;;2.65;;
23175;SDS011;19910;42.652;23.332;2023-05-29T07:35:20;5.85;;;3.03;;
23175;SDS011;19910;42.652;23.332;2023-05-29T07:37:47;4.57;;;2.30;;
23175;SDS011;19910;42.652;23.332;2023-05-29T07:40:14;3.42;;;2.92;;
23175;SDS011;19910;42.652;23.332;2023-05-29T07:42:41;5.30;;;2.35;;
23175;SDS011;19910;42.652;23.332;2023-05-29T07:45:09;3.75;;;2.40;;
23175;SDS011;19910;42.652;23.332;2023-05-29T07:47:37;3.50;;;2.58;;
23175;SDS011;19910;42.652;23.332;2023-05-29T07:50:04;4.88;;;2.40;;
23175;SDS011;19910;42.652;23.332;2023-05-29T07:52:31;4.07;;;2.60;;
23175;SDS011;19910;42.652;23.332;2023-05-29T07:54:58;4.68;;;2.65;;
23175;SDS011;19910;42.652;23.332;2023-05-29T07:57:26;3.05;;;2.55;;
23175;SDS011;19910;42.652;23.332;2023-05-29T07:59:54;6.10;;;2.55;;
23175;SDS011;19910;42.652;23.332;2023-05-29T08:02:22;6.03;;;2.88;;
23175;SDS011;19910;42.652;23.332;2023-05-29T08:04:48;3.88;;;2.85;;
23175;SDS011;19910;42.652;23.332;2023-05-29T08:07:15;4.15;;;3.28;;
23175;SDS011;19910;42.652;23.332;2023-05-29T08:09:42;3.95;;;3.00;;
23175;SDS011;19910;42.652;23.332;2023-05-29T08:12:09;8.57;;;3.45;;
23175;SDS011;19910;42.652;23.332;2023-05-29T08:14:36;7.00;;;2.88;;
23175;SDS011;19910;42.652;23.332;2023-05-29T08:17:03;6.88;;;3.15;;
23175;SDS011;19910;42.652;23.332;2023-05-29T08:19:31;3.88;;;2.80;;
23175;SDS011;19910;42.652;23.332;2023-05-29T08:21:58;3.90;;;2.63;;
23175;SDS011;19910;42.652;23.332;2023-05-29T08:24:25;4.22;;;2.38;;
23175;SDS011;19910;42.652;23.332;2023-05-29T08:26:53;2.75;;;2.38;;
23175;SDS011;19910;42.652;23.332;2023-05-29T08:29:19;4.10;;;2.35;;
23175;SDS011;19910;42.652;23.332;2023-05-29T08:31:47;4.40;;;2.45;;
23175;SDS011;19910;42.652;23.332;2023-05-29T08:34:14;2.63;;;2.25;;
23175;SDS011;19910;42.652;23.332;2023-05-29T08:36:42;3.65;;;2.55;;
23175;SDS011;19910;42.652;23.332;2023-05-29T08:39:10;4.85;;;2.45;;
23175;SDS011;19910;42.652;23.332;2023-05-29T08:41:38;4.97;;;2.60;;
23175;SDS011;19910;42.652;23.332;2023-05-29T08:44:13;4.90;;;2.72;;
23175;SDS011;19910;42.652;23.332;2023-05-29T08:46:40;3.10;;;2.40;;
23175;SDS011;19910;42.652;23.332;2023-05-29T08:49:09;3.47;;;2.50;;
23175;SDS011;19910;42.652;23.332;2023-05-29T08:51:44;4.22;;;2.70;;
23175;SDS011;19910;42.652;23.332;2023-05-29T08:54:15;2.92;;;2.28;;
23175;SDS011;19910;42.652;23.332;2023-05-29T08:56:43;3.45;;;2.30;;
23175;SDS011;19910;42.652;23.332;2023-05-29T08:59:09;3.78;;;2.50;;
23175;SDS011;19910;42.652;23.332;2023-05-29T09:01:38;3.45;;;2.22;;
23175;SDS011;19910;42.652;23.332;2023-05-29T09:04:05;3.42;;;2.50;;
23175;SDS011;19910;42.652;23.332;2023-05-29T09:06:33;4.47;;;2.50;;
23175;SDS011;19910;42.652;23.332;2023-05-29T09:09:01;5.15;;;2.67;;
23175;SDS011;19910;42.652;23.332;2023-05-29T09:11:29;4.45;;;2.83;;
23175;SDS011;19910;42.652;23.332;2023-05-29T09:13:56;7.45;;;3.13;;
23175;SDS011;19910;42.652;23.332;2023-05-29T09:16:24;5.55;;;2.47;;
23175;SDS011;19910;42.652;23.332;2023-05-29T09:18:51;3.55;;;2.67;;
23175;SDS011;19910;42.652;23.332;2023-05-29T09:21:24;3.17;;;2.60;;
23175;SDS011;19910;42.652;23.332;2023-05-29T09:23:52;5.43;;;2.60;;
23175;SDS011;19910;42.652;23.332;2023-05-29T09:26:22;3.75;;;2.40;;
23175;SDS011;19910;42.652;23.332;2023-05-29T09:28:49;5.18;;;3.20;;
23175;SDS011;19910;42.652;23.332;2023-05-29T09:31:16;2.83;;;2.40;;
23175;SDS011;19910;42.652;23.332;2023-05-29T09:33:48;4.38;;;2.67;;
23175;SDS011;19910;42.652;23.332;2023-05-29T09:36:24;5.97;;;2.70;;
23175;SDS011;19910;42.652;23.332;2023-05-29T09:38:51;2.90;;;2.30;;
23175;SDS011;19910;42.652;23.332;2023-05-29T09:41:23;4.78;;;2.70;;
23175;SDS011;19910;42.652;23.332;2023-05-29T09:43:50;2.85;;;2.47;;
23175;SDS011;19910;42.652;23.332;2023-05-29T09:46:18;4.22;;;2.80;;
23175;SDS011;19910;42.652;23.332;2023-05-29T09:48:45;3.95;;;2.60;;
23175;SDS011;19910;42.652;23.332;2023-05-29T09:51:19;3.90;;;2.80;;
23175;SDS011;19910;42.652;23.332;2023-05-29T09:53:47;4.45;;;2.80;;
23175;SDS011;19910;42.652;23.332;2023-05-29T09:56:15;3.45;;;3.00;;
23175;SDS011;19910;42.652;23.332;2023-05-29T09:58:44;4.53;;;3.20;;
23175;SDS011;19910;42.652;23.332;2023-05-29T10:01:12;3.30;;;2.25;;
23175;SDS011;19910;42.652;23.332;2023-05-29T10:03:40;3.65;;;2.80;;
23175;SDS011;19910;42.652;23.332;2023-05-29T10:06:07;3.45;;;2.63;;
23175;SDS011;19910;42.652;23.332;2023-05-29T10:08:40;5.35;;;2.70;;
23175;SDS011;19910;42.652;23.332;2023-05-29T10:11:12;5.25;;;2.55;;
23175;SDS011;19910;42.652;23.332;2023-05-29T10:13:42;3.80;;;2.55;;
23175;SDS011;19910;42.652;23.332;2023-05-29T10:16:14;2.97;;;2.67;;
23175;SDS011;19910;42.652;23.332;2023-05-29T10:18:42;4.63;;;2.70;;
23175;SDS011;19910;42.652;23.332;2023-05-29T10:21:11;3.53;;;2.75;;
23175;SDS011;19910;42.652;23.332;2023-05-29T10:23:39;4.97;;;2.90;;
23175;SDS011;19910;42.652;23.332;2023-05-29T10:26:10;4.38;;;3.17;;
23175;SDS011;19910;42.652;23.332;2023-05-29T10:28:42;5.35;;;2.90;;
23175;SDS011;19910;42.652;23.332;2023-05-29T10:31:16;4.93;;;2.50;;
23175;SDS011;19910;42.652;23.332;2023-05-29T10:33:50;4.45;;;3.00;;
23175;SDS011;19910;42.652;23.332;2023-05-29T10:36:28;5.35;;;3.08;;
23175;SDS011;19910;42.652;23.332;2023-05-29T10:39:02;4.28;;;2.70;;
23175;SDS011;19910;42.652;23.332;2023-05-29T10:41:30;4.28;;;3.10;;
23175;SDS011;19910;42.652;23.332;2023-05-29T10:44:00;3.15;;;2.50;;
23175;SDS011;19910;42.652;23.332;2023-05-29T10:49:31;4.45;;;2.67;;
23175;SDS011;19910;42.652;23.332;2023-05-29T10:51:58;4.25;;;2.85;;
23175;SDS011;19910;42.652;23.332;2023-05-29T10:54:26;3.35;;;2.90;;
23175;SDS011;19910;42.652;23.332;2023-05-29T10:56:55;3.40;;;2.70;;
23175;SDS011;19910;42.652;23.332;2023-05-29T10:59:25;4.10;;;3.10;;
23175;SDS011;19910;42.652;23.332;2023-05-29T11:01:52;6.60;;;3.20;;
23175;SDS011;19910;42.652;23.332;2023-05-29T11:04:29;5.07;;;3.28;;
23175;SDS011;19910;42.652;23.332;2023-05-29T11:06:57;5.22;;;3.65;;
23175;SDS011;19910;42.652;23.332;2023-05-29T11:09:28;5.25;;;3.53;;
23175;SDS011;19910;42.652;23.332;2023-05-29T11:12:13;9.93;;;4.07;;
23175;SDS011;19910;42.652;23.332;2023-05-29T11:14:55;11.07;;;4.95;;
23175;SDS011;19910;42.652;23.332;2023-05-29T11:17:29;7.57;;;4.20;;
23175;SDS011;19910;42.652;23.332;2023-05-29T11:23:03;4.57;;;3.10;;
23175;SDS011;19910;42.652;23.332;2023-05-29T11:25:33;4.85;;;3.40;;
23175;SDS011;19910;42.652;23.332;2023-05-29T11:28:01;5.07;;;3.03;;
23175;SDS011;19910;42.652;23.332;2023-05-29T11:30:41;3.90;;;3.00;;
23175;SDS011;19910;42.652;23.332;2023-05-29T11:33:09;4.28;;;3.42;;
23175;SDS011;19910;42.652;23.332;2023-05-29T11:35:46;4.80;;;3.35;;
23175;SDS011;19910;42.652;23.332;2023-05-29T11:38:17;4.07;;;3.20;;
23175;SDS011;19910;42.652;23.332;2023-05-29T11:40:44;4.97;;;3.30;;
23175;SDS011;19910;42.652;23.332;2023-05-29T11:43:11;7.32;;;3.60;;
23175;SDS011;19910;42.652;23.332;2023-05-29T11:45:38;4.95;;;3.30;;
23175;SDS011;19910;42.652;23.332;2023-05-29T11:48:07;4.68;;;2.95;;
23175;SDS011;19910;42.652;23.332;2023-05-29T11:50:34;10.20;;;5.72;;
23175;SDS011;19910;42.652;23.332;2023-05-29T11:53:02;4.45;;;4.03;;
23175;SDS011;19910;42.652;23.332;2023-05-29T11:55:32;6.00;;;3.50;;
23175;SDS011;19910;42.652;23.332;2023-05-29T11:57:59;4.60;;;3.00;;
23175;SDS011;19910;42.652;23.332;2023-05-29T12:00:29;6.93;;;3.42;;
23175;SDS011;19910;42.652;23.332;2023-05-29T12:02:58;14.57;;;4.03;;
23175;SDS011;19910;42.652;23.332;2023-05-29T12:05:30;6.10;;;3.75;;
23175;SDS011;19910;42.652;23.332;2023-05-29T12:07:57;14.20;;;3.90;;
23175;SDS011;19910;42.652;23.332;2023-05-29T12:10:26;8.98;;;3.83;;
23175;SDS011;19910;42.652;23.332;2023-05-29T12:12:53;6.05;;;2.78;;
23175;SDS011;19910;42.652;23.332;2023-05-29T12:15:21;8.43;;;3.88;;
23175;SDS011;19910;42.652;23.332;2023-05-29T12:17:48;7.07;;;3.53;;
23175;SDS011;19910;42.652;23.332;2023-05-29T12:20:17;6.80;;;3.30;;
23175;SDS011;19910;42.652;23.332;2023-05-29T12:22:45;8.32;;;3.20;;
23175;SDS011;19910;42.652;23.332;2023-05-29T12:25:13;4.75;;;2.75;;
23175;SDS011;19910;42.652;23.332;2023-05-29T12:27:41;3.47;;;2.60;;
23175;SDS011;19910;42.652;23.332;2023-05-29T12:30:11;4.25;;;2.97;;
23175;SDS011;19910;42.652;23.332;2023-05-29T12:32:40;4.68;;;3.15;;
23175;SDS011;19910;42.652;23.332;2023-05-29T12:35:15;8.45;;;3.72;;
23175;SDS011;19910;42.652;23.332;2023-05-29T12:37:46;8.43;;;4.28;;
23175;SDS011;19910;42.652;23.332;2023-05-29T12:40:14;7.35;;;3.40;;
23175;SDS011;19910;42.652;23.332;2023-05-29T12:42:42;5.68;;;3.80;;
23175;SDS011;19910;42.652;23.332;2023-05-29T12:45:09;5.63;;;3.67;;
23175;SDS011;19910;42.652;23.332;2023-05-29T12:47:37;3.50;;;2.78;;
23175;SDS011;19910;42.652;23.332;2023-05-29T12:50:05;7.57;;;3.45;;
23175;SDS011;19910;42.652;23.332;2023-05-29T12:52:48;8.60;;;3.65;;
23175;SDS011;19910;42.652;23.332;2023-05-29T12:55:19;7.80;;;3.90;;
23175;SDS011;19910;42.652;23.332;2023-05-29T12:57:46;4.65;;;3.50;;
23175;SDS011;19910;42.652;23.332;2023-05-29T13:00:13;4.10;;;2.85;;
23175;SDS011;19910;42.652;23.332;2023-05-29T13:02:40;3.50;;;2.38;;
23175;SDS011;19910;42.652;23.332;2023-05-29T13:05:07;5.20;;;3.20;;
23175;SDS011;19910;42.652;23.332;2023-05-29T13:07:34;5.80;;;3.90;;
23175;SDS011;19910;42.652;23.332;2023-05-29T13:10:03;4.63;;;2.90;;
23175;SDS011;19910;42.652;23.332;2023-05-29T13:12:31;3.80;;;2.80;;
23175;SDS011;19910;42.652;23.332;2023-05-29T13:14:58;4.32;;;3.20;;
23175;SDS011;19910;42.652;23.332;2023-05-29T13:17:24;6.10;;;3.10;;
23175;SDS011;19910;42.652;23.332;2023-05-29T13:19:51;5.22;;;4.13;;
23175;SDS011;19910;42.652;23.332;2023-05-29T13:22:18;10.70;;;7.40;;
23175;SDS011;19910;42.652;23.332;2023-05-29T13:24:45;4.57;;;3.10;;
23175;SDS011;19910;42.652;23.332;2023-05-29T13:27:13;6.32;;;3.70;;
23175;SDS011;19910;42.652;23.332;2023-05-29T13:29:41;8.05;;;3.38;;
23175;SDS011;19910;42.652;23.332;2023-05-29T13:32:08;6.07;;;3.90;;
23175;SDS011;19910;42.652;23.332;2023-05-29T13:34:35;8.18;;;4.75;;
23175;SDS011;19910;42.652;23.332;2023-05-29T13:37:02;4.10;;;3.38;;
23175;SDS011;19910;42.652;23.332;2023-05-29T13:39:28;6.90;;;5.10;;
23175;SDS011;19910;42.652;23.332;2023-05-29T13:41:55;8.55;;;5.85;;
23175;SDS011;19910;42.652;23.332;2023-05-29T13:44:23;7.53;;;5.35;;
23175;SDS011;19910;42.652;23.332;2023-05-29T13:46:50;6.82;;;4.57;;
23175;SDS011;19910;42.652;23.332;2023-05-29T13:49:17;7.22;;;4.32;;
23175;SDS011;19910;42.652;23.332;2023-05-29T13:51:44;8.65;;;4.53;;
23175;SDS011;19910;42.652;23.332;2023-05-29T13:54:12;7.05;;;4.35;;
23175;SDS011;19910;42.652;23.332;2023-05-29T13:56:39;7.88;;;3.92;;
23175;SDS011;19910;42.652;23.332;2023-05-29T13:59:05;10.23;;;6.10;;
23175;SDS011;19910;42.652;23.332;2023-05-29T14:01:33;7.85;;;5.70;;
23175;SDS011;19910;42.652;23.332;2023-05-29T14:04:00;8.23;;;4.78;;
23175;SDS011;19910;42.652;23.332;2023-05-29T14:06:27;9.43;;;5.88;;
23175;SDS011;19910;42.652;23.332;2023-05-29T14:08:54;8.30;;;5.47;;
23175;SDS011;19910;42.652;23.332;2023-05-29T14:11:21;9.23;;;5.50;;
23175;SDS011;19910;42.652;23.332;2023-05-29T14:13:48;11.38;;;5.30;;
23175;SDS011;19910;42.652;23.332;2023-05-29T14:16:15;3.88;;;3.10;;
23175;SDS011;19910;42.652;23.332;2023-05-29T14:18:43;3.92;;;1.77;;
23175;SDS011;19910;42.652;23.332;2023-05-29T14:21:10;2.65;;;1.70;;
23175;SDS011;19910;42.652;23.332;2023-05-29T14:23:37;3.85;;;2.28;;
23175;SDS011;19910;42.652;23.332;2023-05-29T14:26:04;6.95;;;1.90;;
23175;SDS011;19910;42.652;23.332;2023-05-29T14:28:32;3.40;;;2.28;;
23175;SDS011;19910;42.652;23.332;2023-05-29T14:30:59;2.45;;;1.70;;
23175;SDS011;19910;42.652;23.332;2023-05-29T14:33:25;2.53;;;1.98;;
23175;SDS011;19910;42.652;23.332;2023-05-29T14:35:54;2.08;;;1.77;;
23175;SDS011;19910;42.652;23.332;2023-05-29T14:38:20;4.10;;;1.85;;
23175;SDS011;19910;42.652;23.332;2023-05-29T14:40:47;2.85;;;1.52;;
23175;SDS011;19910;42.652;23.332;2023-05-29T14:43:14;3.85;;;2.08;;
23175;SDS011;19910;42.652;23.332;2023-05-29T14:45:41;5.40;;;2.67;;